sensor_id;sensor_type;location;lat;lon;timestamp;temperature;humidity
25937;DHT22;13733;51.178;4.450;2022-08-01T00:01:16;21.50;99.90
25937;DHT22;13733;51.178;4.450;2022-08-01T00:03:42;21.50;99.90
25937;DHT22;13733;51.178;4.450;2022-08-01T00:06:07;21.50;99.90
25937;DHT22;13733;51.178;4.450;2022-08-01T00:08:33;21.60;99.90
25937;DHT22;13733;51.178;4.450;2022-08-01T00:10:59;21.40;99.90
25937;DHT22;13733;51.178;4.450;2022-08-01T00:13:24;21.50;99.90
25937;DHT22;13733;51.178;4.450;2022-08-01T00:15:50;21.50;99.90
25937;DHT22;13733;51.178;4.450;2022-08-01T00:18:16;21.50;99.90
25937;DHT22;13733;51.178;4.450;2022-08-01T00:20:42;21.30;99.90
25937;DHT22;13733;51.178;4.450;2022-08-01T00:23:07;21.30;99.90
25937;DHT22;13733;51.178;4.450;2022-08-01T00:25:33;21.50;99.90
25937;DHT22;13733;51.178;4.450;2022-08-01T00:27:59;21.60;99.90
25937;DHT22;13733;51.178;4.450;2022-08-01T00:30:25;21.60;99.90
25937;DHT22;13733;51.178;4.450;2022-08-01T00:32:51;21.60;99.90
25937;DHT22;13733;51.178;4.450;2022-08-01T00:35:17;21.60;99.90
25937;DHT22;13733;51.178;4.450;2022-08-01T00:37:43;21.70;99.90
25937;DHT22;13733;51.178;4.450;2022-08-01T00:40:09;21.60;99.90
25937;DHT22;13733;51.178;4.450;2022-08-01T00:42:35;21.60;99.90
25937;DHT22;13733;51.178;4.450;2022-08-01T00:45:01;21.50;99.90
25937;DHT22;13733;51.178;4.450;2022-08-01T00:47:26;21.50;99.90
25937;DHT22;13733;51.178;4.450;2022-08-01T00:49:52;21.50;99.90
25937;DHT22;13733;51.178;4.450;2022-08-01T00:52:18;21.60;99.90
25937;DHT22;13733;51.178;4.450;2022-08-01T00:54:45;21.50;99.90
25937;DHT22;13733;51.178;4.450;2022-08-01T00:57:12;21.60;99.90
25937;DHT22;13733;51.178;4.450;2022-08-01T00:59:39;21.60;99.90
25937;DHT22;13733;51.178;4.450;2022-08-01T01:02:05;21.50;99.90
25937;DHT22;13733;51.178;4.450;2022-08-01T01:04:31;21.30;99.90
25937;DHT22;13733;51.178;4.450;2022-08-01T01:09:36;21.20;99.90
25937;DHT22;13733;51.178;4.450;2022-08-01T01:12:19;21.20;99.90
25937;DHT22;13733;51.178;4.450;2022-08-01T01:17:23;21.20;99.90
25937;DHT22;13733;51.178;4.450;2022-08-01T01:19:54;21.30;99.90
25937;DHT22;13733;51.178;4.450;2022-08-01T01:22:35;21.40;99.90
25937;DHT22;13733;51.178;4.450;2022-08-01T01:30:30;21.30;99.90
25937;DHT22;13733;51.178;4.450;2022-08-01T01:33:00;21.30;99.90
25937;DHT22;13733;51.178;4.450;2022-08-01T01:35:31;21.10;99.90
25937;DHT22;13733;51.178;4.450;2022-08-01T01:38:18;21.20;99.90
25937;DHT22;13733;51.178;4.450;2022-08-01T01:40:46;21.00;99.90
25937;DHT22;13733;51.178;4.450;2022-08-01T01:43:14;20.90;99.90
25937;DHT22;13733;51.178;4.450;2022-08-01T01:45:41;21.00;99.90
25937;DHT22;13733;51.178;4.450;2022-08-01T01:48:09;21.00;99.90
25937;DHT22;13733;51.178;4.450;2022-08-01T01:50:36;21.10;99.90
25937;DHT22;13733;51.178;4.450;2022-08-01T01:53:04;21.20;99.90
25937;DHT22;13733;51.178;4.450;2022-08-01T01:55:31;21.00;99.90
25937;DHT22;13733;51.178;4.450;2022-08-01T01:57:58;20.90;99.90
25937;DHT22;13733;51.178;4.450;2022-08-01T02:00:26;20.90;99.90
25937;DHT22;13733;51.178;4.450;2022-08-01T02:02:54;20.80;99.90
25937;DHT22;13733;51.178;4.450;2022-08-01T02:05:22;20.80;99.90
25937;DHT22;13733;51.178;4.450;2022-08-01T02:07:51;20.90;99.90
25937;DHT22;13733;51.178;4.450;2022-08-01T02:10:19;20.90;99.90
25937;DHT22;13733;51.178;4.450;2022-08-01T02:12:46;20.80;99.90
25937;DHT22;13733;51.178;4.450;2022-08-01T02:15:14;20.70;99.90
25937;DHT22;13733;51.178;4.450;2022-08-01T02:17:44;20.60;99.90
25937;DHT22;13733;51.178;4.450;2022-08-01T02:20:12;20.60;99.90
25937;DHT22;13733;51.178;4.450;2022-08-01T02:22:50;20.70;99.90
25937;DHT22;13733;51.178;4.450;2022-08-01T02:25:27;20.80;99.90
25937;DHT22;13733;51.178;4.450;2022-08-01T02:28:03;20.80;99.90
25937;DHT22;13733;51.178;4.450;2022-08-01T02:30:34;21.00;99.90
25937;DHT22;13733;51.178;4.450;2022-08-01T02:33:12;21.00;99.90
25937;DHT22;13733;51.178;4.450;2022-08-01T02:35:42;21.00;99.90
25937;DHT22;13733;51.178;4.450;2022-08-01T02:38:10;20.90;99.90
25937;DHT22;13733;51.178;4.450;2022-08-01T02:40:38;20.90;99.90
25937;DHT22;13733;51.178;4.450;2022-08-01T02:43:06;20.90;99.90
25937;DHT22;13733;51.178;4.450;2022-08-01T02:45:35;20.80;99.90
25937;DHT22;13733;51.178;4.450;2022-08-01T02:48:09;20.80;99.90
25937;DHT22;13733;51.178;4.450;2022-08-01T02:50:37;20.60;99.90
25937;DHT22;13733;51.178;4.450;2022-08-01T02:53:05;20.50;99.90
25937;DHT22;13733;51.178;4.450;2022-08-01T02:55:32;20.50;99.90
25937;DHT22;13733;51.178;4.450;2022-08-01T02:58:00;20.50;99.90
25937;DHT22;13733;51.178;4.450;2022-08-01T03:00:28;20.40;99.90
25937;DHT22;13733;51.178;4.450;2022-08-01T03:02:56;20.30;99.90
25937;DHT22;13733;51.178;4.450;2022-08-01T03:05:24;20.30;99.90
25937;DHT22;13733;51.178;4.450;2022-08-01T03:07:51;20.30;99.90
25937;DHT22;13733;51.178;4.450;2022-08-01T03:10:18;20.40;99.90
25937;DHT22;13733;51.178;4.450;2022-08-01T03:12:45;20.40;99.90
25937;DHT22;13733;51.178;4.450;2022-08-01T03:15:13;20.40;99.90
25937;DHT22;13733;51.178;4.450;2022-08-01T03:17:41;20.50;99.90
25937;DHT22;13733;51.178;4.450;2022-08-01T03:20:10;20.50;99.90
25937;DHT22;13733;51.178;4.450;2022-08-01T03:22:39;20.50;99.90
25937;DHT22;13733;51.178;4.450;2022-08-01T03:25:06;20.40;99.90
25937;DHT22;13733;51.178;4.450;2022-08-01T03:27:36;20.40;99.90
25937;DHT22;13733;51.178;4.450;2022-08-01T03:30:04;20.40;99.90
25937;DHT22;13733;51.178;4.450;2022-08-01T03:32:30;20.40;99.90
25937;DHT22;13733;51.178;4.450;2022-08-01T03:34:56;20.40;99.90
25937;DHT22;13733;51.178;4.450;2022-08-01T03:37:28;20.40;99.90
25937;DHT22;13733;51.178;4.450;2022-08-01T03:42:59;20.60;99.90
25937;DHT22;13733;51.178;4.450;2022-08-01T03:45:40;20.60;99.90
25937;DHT22;13733;51.178;4.450;2022-08-01T03:48:12;20.70;99.90
25937;DHT22;13733;51.178;4.450;2022-08-01T03:50:42;20.70;99.90
25937;DHT22;13733;51.178;4.450;2022-08-01T03:53:08;20.60;99.90
25937;DHT22;13733;51.178;4.450;2022-08-01T03:55:37;20.60;99.90
25937;DHT22;13733;51.178;4.450;2022-08-01T03:58:04;20.50;99.90
25937;DHT22;13733;51.178;4.450;2022-08-01T04:00:31;20.40;99.90
25937;DHT22;13733;51.178;4.450;2022-08-01T04:02:57;20.50;99.90
25937;DHT22;13733;51.178;4.450;2022-08-01T04:05:23;20.50;99.90
25937;DHT22;13733;51.178;4.450;2022-08-01T04:07:50;20.40;99.90
25937;DHT22;13733;51.178;4.450;2022-08-01T04:10:25;20.50;99.90
25937;DHT22;13733;51.178;4.450;2022-08-01T04:12:51;20.60;99.90
25937;DHT22;13733;51.178;4.450;2022-08-01T04:15:17;20.60;99.90
25937;DHT22;13733;51.178;4.450;2022-08-01T04:17:43;20.40;99.90
25937;DHT22;13733;51.178;4.450;2022-08-01T04:20:10;20.40;99.90
25937;DHT22;13733;51.178;4.450;2022-08-01T04:22:36;20.30;99.90
25937;DHT22;13733;51.178;4.450;2022-08-01T04:25:06;20.20;99.90
25937;DHT22;13733;51.178;4.450;2022-08-01T04:27:40;20.30;99.90
25937;DHT22;13733;51.178;4.450;2022-08-01T04:30:08;20.50;99.90
25937;DHT22;13733;51.178;4.450;2022-08-01T04:32:38;20.50;99.90
25937;DHT22;13733;51.178;4.450;2022-08-01T04:35:06;20.40;99.90
25937;DHT22;13733;51.178;4.450;2022-08-01T04:37:33;20.40;99.90
25937;DHT22;13733;51.178;4.450;2022-08-01T04:40:04;20.50;99.90
25937;DHT22;13733;51.178;4.450;2022-08-01T04:42:34;20.60;99.90
25937;DHT22;13733;51.178;4.450;2022-08-01T04:45:01;20.70;99.90
25937;DHT22;13733;51.178;4.450;2022-08-01T04:47:29;20.80;99.90
25937;DHT22;13733;51.178;4.450;2022-08-01T04:49:56;20.70;99.90
25937;DHT22;13733;51.178;4.450;2022-08-01T04:52:22;20.70;99.90
25937;DHT22;13733;51.178;4.450;2022-08-01T04:54:48;20.70;99.90
25937;DHT22;13733;51.178;4.450;2022-08-01T04:57:14;20.80;99.90
25937;DHT22;13733;51.178;4.450;2022-08-01T04:59:43;21.00;99.90
25937;DHT22;13733;51.178;4.450;2022-08-01T05:02:11;21.00;99.90
25937;DHT22;13733;51.178;4.450;2022-08-01T05:04:38;21.00;99.90
25937;DHT22;13733;51.178;4.450;2022-08-01T05:07:07;21.00;99.90
25937;DHT22;13733;51.178;4.450;2022-08-01T05:09:33;21.10;99.90
25937;DHT22;13733;51.178;4.450;2022-08-01T05:12:00;21.20;99.90
25937;DHT22;13733;51.178;4.450;2022-08-01T05:14:28;21.30;99.90
25937;DHT22;13733;51.178;4.450;2022-08-01T05:16:54;21.30;99.90
25937;DHT22;13733;51.178;4.450;2022-08-01T05:19:20;21.40;99.90
25937;DHT22;13733;51.178;4.450;2022-08-01T05:21:47;21.50;99.90
25937;DHT22;13733;51.178;4.450;2022-08-01T05:24:13;21.70;99.90
25937;DHT22;13733;51.178;4.450;2022-08-01T05:26:39;21.80;99.90
25937;DHT22;13733;51.178;4.450;2022-08-01T05:29:05;21.80;99.90
25937;DHT22;13733;51.178;4.450;2022-08-01T05:31:30;21.70;99.90
25937;DHT22;13733;51.178;4.450;2022-08-01T05:34:02;21.70;99.90
25937;DHT22;13733;51.178;4.450;2022-08-01T05:36:28;21.60;99.90
25937;DHT22;13733;51.178;4.450;2022-08-01T05:38:54;21.60;99.90
25937;DHT22;13733;51.178;4.450;2022-08-01T05:41:20;21.70;99.90
25937;DHT22;13733;51.178;4.450;2022-08-01T05:43:46;21.90;99.90
25937;DHT22;13733;51.178;4.450;2022-08-01T05:46:13;22.00;99.90
25937;DHT22;13733;51.178;4.450;2022-08-01T05:48:38;22.10;99.90
25937;DHT22;13733;51.178;4.450;2022-08-01T05:51:04;22.20;99.90
25937;DHT22;13733;51.178;4.450;2022-08-01T05:53:30;22.20;99.90
25937;DHT22;13733;51.178;4.450;2022-08-01T05:55:56;22.20;99.90
25937;DHT22;13733;51.178;4.450;2022-08-01T05:58:22;22.20;99.90
25937;DHT22;13733;51.178;4.450;2022-08-01T06:00:48;22.30;99.90
25937;DHT22;13733;51.178;4.450;2022-08-01T06:03:14;22.30;99.90
25937;DHT22;13733;51.178;4.450;2022-08-01T06:05:40;22.30;99.90
25937;DHT22;13733;51.178;4.450;2022-08-01T06:08:05;22.20;99.90
25937;DHT22;13733;51.178;4.450;2022-08-01T06:10:31;22.20;99.90
25937;DHT22;13733;51.178;4.450;2022-08-01T06:12:57;22.30;99.90
25937;DHT22;13733;51.178;4.450;2022-08-01T06:15:23;22.40;99.90
25937;DHT22;13733;51.178;4.450;2022-08-01T06:17:49;22.60;99.90
25937;DHT22;13733;51.178;4.450;2022-08-01T06:20:14;22.60;99.90
25937;DHT22;13733;51.178;4.450;2022-08-01T06:22:40;22.70;99.90
25937;DHT22;13733;51.178;4.450;2022-08-01T06:25:07;22.80;99.90
25937;DHT22;13733;51.178;4.450;2022-08-01T06:27:36;23.00;99.90
25937;DHT22;13733;51.178;4.450;2022-08-01T06:30:03;23.00;99.90
25937;DHT22;13733;51.178;4.450;2022-08-01T06:32:29;23.00;99.90
25937;DHT22;13733;51.178;4.450;2022-08-01T06:34:56;23.00;99.90
25937;DHT22;13733;51.178;4.450;2022-08-01T06:37:22;23.10;99.90
25937;DHT22;13733;51.178;4.450;2022-08-01T06:39:48;23.10;99.90
25937;DHT22;13733;51.178;4.450;2022-08-01T06:42:15;23.20;99.90
25937;DHT22;13733;51.178;4.450;2022-08-01T06:44:41;23.20;99.90
25937;DHT22;13733;51.178;4.450;2022-08-01T06:47:07;23.30;99.90
25937;DHT22;13733;51.178;4.450;2022-08-01T06:49:32;23.40;99.90
25937;DHT22;13733;51.178;4.450;2022-08-01T06:51:58;23.50;99.90
25937;DHT22;13733;51.178;4.450;2022-08-01T06:54:24;23.60;99.90
25937;DHT22;13733;51.178;4.450;2022-08-01T06:56:50;23.50;99.90
25937;DHT22;13733;51.178;4.450;2022-08-01T06:59:15;23.40;99.90
25937;DHT22;13733;51.178;4.450;2022-08-01T07:01:41;23.40;99.90
25937;DHT22;13733;51.178;4.450;2022-08-01T07:04:07;23.50;99.90
25937;DHT22;13733;51.178;4.450;2022-08-01T07:06:33;23.70;99.90
25937;DHT22;13733;51.178;4.450;2022-08-01T07:08:59;23.70;99.90
25937;DHT22;13733;51.178;4.450;2022-08-01T07:11:27;24.00;99.90
25937;DHT22;13733;51.178;4.450;2022-08-01T07:13:52;24.10;99.90
25937;DHT22;13733;51.178;4.450;2022-08-01T07:16:18;24.20;99.90
25937;DHT22;13733;51.178;4.450;2022-08-01T07:18:44;24.40;99.90
25937;DHT22;13733;51.178;4.450;2022-08-01T07:21:10;24.50;99.90
25937;DHT22;13733;51.178;4.450;2022-08-01T07:23:36;24.40;99.90
25937;DHT22;13733;51.178;4.450;2022-08-01T07:26:03;24.50;99.90
25937;DHT22;13733;51.178;4.450;2022-08-01T07:28:29;24.50;99.90
25937;DHT22;13733;51.178;4.450;2022-08-01T07:30:55;24.50;99.90
25937;DHT22;13733;51.178;4.450;2022-08-01T07:33:21;24.50;99.90
25937;DHT22;13733;51.178;4.450;2022-08-01T07:35:48;24.50;99.90
25937;DHT22;13733;51.178;4.450;2022-08-01T07:38:13;24.50;99.90
25937;DHT22;13733;51.178;4.450;2022-08-01T07:40:43;24.40;99.90
25937;DHT22;13733;51.178;4.450;2022-08-01T07:43:09;24.10;99.90
25937;DHT22;13733;51.178;4.450;2022-08-01T07:45:35;24.20;99.90
25937;DHT22;13733;51.178;4.450;2022-08-01T07:48:05;24.30;99.90
25937;DHT22;13733;51.178;4.450;2022-08-01T07:50:31;23.90;99.90
25937;DHT22;13733;51.178;4.450;2022-08-01T07:52:57;24.00;99.90
25937;DHT22;13733;51.178;4.450;2022-08-01T07:55:23;23.80;99.90
25937;DHT22;13733;51.178;4.450;2022-08-01T07:57:49;23.70;99.90
25937;DHT22;13733;51.178;4.450;2022-08-01T08:00:15;23.60;99.90
25937;DHT22;13733;51.178;4.450;2022-08-01T08:02:41;23.60;99.90
25937;DHT22;13733;51.178;4.450;2022-08-01T08:05:07;23.70;99.90
25937;DHT22;13733;51.178;4.450;2022-08-01T08:07:34;24.00;99.90
25937;DHT22;13733;51.178;4.450;2022-08-01T08:09:59;24.10;99.90
25937;DHT22;13733;51.178;4.450;2022-08-01T08:12:25;24.30;99.90
25937;DHT22;13733;51.178;4.450;2022-08-01T08:14:51;24.40;99.90
25937;DHT22;13733;51.178;4.450;2022-08-01T08:17:17;24.70;99.90
25937;DHT22;13733;51.178;4.450;2022-08-01T08:19:43;24.70;99.90
25937;DHT22;13733;51.178;4.450;2022-08-01T08:22:09;24.70;99.90
25937;DHT22;13733;51.178;4.450;2022-08-01T08:24:36;24.70;99.90
25937;DHT22;13733;51.178;4.450;2022-08-01T08:27:03;24.70;99.90
25937;DHT22;13733;51.178;4.450;2022-08-01T08:29:30;24.80;99.90
25937;DHT22;13733;51.178;4.450;2022-08-01T08:31:58;24.90;99.90
25937;DHT22;13733;51.178;4.450;2022-08-01T08:34:25;24.90;99.90
25937;DHT22;13733;51.178;4.450;2022-08-01T08:36:51;25.00;99.90
25937;DHT22;13733;51.178;4.450;2022-08-01T08:39:17;25.20;99.90
25937;DHT22;13733;51.178;4.450;2022-08-01T08:41:43;25.30;99.90
25937;DHT22;13733;51.178;4.450;2022-08-01T08:44:10;25.40;99.90
25937;DHT22;13733;51.178;4.450;2022-08-01T08:47:02;25.40;99.90
25937;DHT22;13733;51.178;4.450;2022-08-01T08:49:31;25.60;99.90
25937;DHT22;13733;51.178;4.450;2022-08-01T08:51:59;25.50;99.90
25937;DHT22;13733;51.178;4.450;2022-08-01T08:54:27;25.50;99.90
25937;DHT22;13733;51.178;4.450;2022-08-01T08:56:53;25.30;99.90
25937;DHT22;13733;51.178;4.450;2022-08-01T08:59:20;25.30;99.90
25937;DHT22;13733;51.178;4.450;2022-08-01T09:01:48;25.30;99.90
25937;DHT22;13733;51.178;4.450;2022-08-01T09:04:13;25.30;99.90
25937;DHT22;13733;51.178;4.450;2022-08-01T09:06:40;25.40;99.90
25937;DHT22;13733;51.178;4.450;2022-08-01T09:09:07;25.40;99.90
25937;DHT22;13733;51.178;4.450;2022-08-01T09:11:34;25.40;99.90
25937;DHT22;13733;51.178;4.450;2022-08-01T09:14:09;25.30;99.90
25937;DHT22;13733;51.178;4.450;2022-08-01T09:16:38;25.20;99.90
25937;DHT22;13733;51.178;4.450;2022-08-01T09:19:14;25.20;99.90
25937;DHT22;13733;51.178;4.450;2022-08-01T09:21:58;25.20;99.90
25937;DHT22;13733;51.178;4.450;2022-08-01T09:24:25;25.20;99.90
25937;DHT22;13733;51.178;4.450;2022-08-01T09:26:52;25.00;99.90
25937;DHT22;13733;51.178;4.450;2022-08-01T09:29:23;24.80;99.90
25937;DHT22;13733;51.178;4.450;2022-08-01T09:31:50;24.90;99.90
25937;DHT22;13733;51.178;4.450;2022-08-01T09:34:27;25.00;99.90
25937;DHT22;13733;51.178;4.450;2022-08-01T09:36:54;25.30;99.90
25937;DHT22;13733;51.178;4.450;2022-08-01T09:39:26;25.70;99.90
25937;DHT22;13733;51.178;4.450;2022-08-01T09:41:57;25.80;99.90
25937;DHT22;13733;51.178;4.450;2022-08-01T09:44:56;25.80;99.90
25937;DHT22;13733;51.178;4.450;2022-08-01T09:47:23;25.90;99.90
25937;DHT22;13733;51.178;4.450;2022-08-01T09:50:01;26.10;99.90
25937;DHT22;13733;51.178;4.450;2022-08-01T09:52:28;26.20;99.90
25937;DHT22;13733;51.178;4.450;2022-08-01T09:55:02;26.00;99.90
25937;DHT22;13733;51.178;4.450;2022-08-01T09:57:29;26.00;99.90
25937;DHT22;13733;51.178;4.450;2022-08-01T09:59:56;26.10;99.90
25937;DHT22;13733;51.178;4.450;2022-08-01T10:02:35;26.20;99.90
25937;DHT22;13733;51.178;4.450;2022-08-01T10:05:05;26.60;99.90
25937;DHT22;13733;51.178;4.450;2022-08-01T10:07:31;26.60;99.90
25937;DHT22;13733;51.178;4.450;2022-08-01T10:10:14;26.50;99.90
25937;DHT22;13733;51.178;4.450;2022-08-01T10:12:41;26.70;99.90
25937;DHT22;13733;51.178;4.450;2022-08-01T10:15:08;26.90;99.90
25937;DHT22;13733;51.178;4.450;2022-08-01T10:17:37;27.10;99.90
25937;DHT22;13733;51.178;4.450;2022-08-01T10:20:05;27.10;99.90
25937;DHT22;13733;51.178;4.450;2022-08-01T10:22:32;27.10;99.70
25937;DHT22;13733;51.178;4.450;2022-08-01T10:25:03;27.00;99.90
25937;DHT22;13733;51.178;4.450;2022-08-01T10:27:32;26.70;99.20
25937;DHT22;13733;51.178;4.450;2022-08-01T10:30:01;26.80;99.20
25937;DHT22;13733;51.178;4.450;2022-08-01T10:32:32;27.10;99.80
25937;DHT22;13733;51.178;4.450;2022-08-01T10:34:59;27.20;98.70
25937;DHT22;13733;51.178;4.450;2022-08-01T10:37:26;27.30;97.70
25937;DHT22;13733;51.178;4.450;2022-08-01T10:39:54;27.30;98.00
25937;DHT22;13733;51.178;4.450;2022-08-01T10:42:20;27.30;97.70
25937;DHT22;13733;51.178;4.450;2022-08-01T10:44:47;27.50;97.20
25937;DHT22;13733;51.178;4.450;2022-08-01T10:47:17;27.80;97.10
25937;DHT22;13733;51.178;4.450;2022-08-01T10:50:03;27.90;96.80
25937;DHT22;13733;51.178;4.450;2022-08-01T10:52:29;28.30;95.80
25937;DHT22;13733;51.178;4.450;2022-08-01T10:55:06;28.30;94.70
25937;DHT22;13733;51.178;4.450;2022-08-01T10:57:45;28.20;94.90
25937;DHT22;13733;51.178;4.450;2022-08-01T11:00:20;28.50;94.80
25937;DHT22;13733;51.178;4.450;2022-08-01T11:03:01;28.80;93.20
25937;DHT22;13733;51.178;4.450;2022-08-01T11:05:33;29.00;92.90
25937;DHT22;13733;51.178;4.450;2022-08-01T11:08:21;29.30;91.80
25937;DHT22;13733;51.178;4.450;2022-08-01T11:10:47;29.70;90.40
25937;DHT22;13733;51.178;4.450;2022-08-01T11:13:13;29.70;90.50
25937;DHT22;13733;51.178;4.450;2022-08-01T11:15:41;29.40;88.80
25937;DHT22;13733;51.178;4.450;2022-08-01T11:20:57;29.80;85.00
25937;DHT22;13733;51.178;4.450;2022-08-01T11:23:27;29.50;85.60
25937;DHT22;13733;51.178;4.450;2022-08-01T11:28:26;29.40;88.60
25937;DHT22;13733;51.178;4.450;2022-08-01T11:41:30;29.50;90.00
25937;DHT22;13733;51.178;4.450;2022-08-01T11:44:03;30.00;87.90
25937;DHT22;13733;51.178;4.450;2022-08-01T11:46:52;30.40;85.70
25937;DHT22;13733;51.178;4.450;2022-08-01T11:52:04;31.10;79.20
25937;DHT22;13733;51.178;4.450;2022-08-01T11:54:35;30.80;77.10
25937;DHT22;13733;51.178;4.450;2022-08-01T11:57:14;30.40;79.50
25937;DHT22;13733;51.178;4.450;2022-08-01T11:59:44;30.20;80.70
25937;DHT22;13733;51.178;4.450;2022-08-01T12:02:22;30.10;79.80
25937;DHT22;13733;51.178;4.450;2022-08-01T12:07:25;30.00;80.00
25937;DHT22;13733;51.178;4.450;2022-08-01T12:10:04;30.00;81.20
25937;DHT22;13733;51.178;4.450;2022-08-01T12:12:31;30.70;80.70
25937;DHT22;13733;51.178;4.450;2022-08-01T12:15:00;30.80;75.10
25937;DHT22;13733;51.178;4.450;2022-08-01T12:17:34;31.10;75.10
25937;DHT22;13733;51.178;4.450;2022-08-01T12:20:00;31.20;74.40
25937;DHT22;13733;51.178;4.450;2022-08-01T12:22:26;31.10;74.60
25937;DHT22;13733;51.178;4.450;2022-08-01T12:24:52;31.00;74.30
25937;DHT22;13733;51.178;4.450;2022-08-01T12:27:28;30.40;72.80
25937;DHT22;13733;51.178;4.450;2022-08-01T12:29:55;30.10;73.10
25937;DHT22;13733;51.178;4.450;2022-08-01T12:34:52;30.20;74.10
25937;DHT22;13733;51.178;4.450;2022-08-01T12:37:19;30.20;73.60
25937;DHT22;13733;51.178;4.450;2022-08-01T12:39:45;30.10;70.90
25937;DHT22;13733;51.178;4.450;2022-08-01T12:42:12;30.00;70.30
25937;DHT22;13733;51.178;4.450;2022-08-01T12:44:39;29.80;74.30
25937;DHT22;13733;51.178;4.450;2022-08-01T12:47:06;29.90;72.90
25937;DHT22;13733;51.178;4.450;2022-08-01T12:49:33;30.10;71.20
25937;DHT22;13733;51.178;4.450;2022-08-01T12:52:01;30.20;72.10
25937;DHT22;13733;51.178;4.450;2022-08-01T12:54:27;30.10;71.80
25937;DHT22;13733;51.178;4.450;2022-08-01T12:56:52;29.80;73.40
25937;DHT22;13733;51.178;4.450;2022-08-01T12:59:26;30.10;74.00
25937;DHT22;13733;51.178;4.450;2022-08-01T13:01:55;29.90;74.60
25937;DHT22;13733;51.178;4.450;2022-08-01T13:04:22;29.70;74.40
25937;DHT22;13733;51.178;4.450;2022-08-01T13:06:52;29.80;73.80
25937;DHT22;13733;51.178;4.450;2022-08-01T13:09:18;29.80;74.00
25937;DHT22;13733;51.178;4.450;2022-08-01T13:11:44;29.70;74.20
25937;DHT22;13733;51.178;4.450;2022-08-01T13:14:26;30.00;71.50
25937;DHT22;13733;51.178;4.450;2022-08-01T13:16:53;30.20;70.00
25937;DHT22;13733;51.178;4.450;2022-08-01T13:19:19;30.20;69.70
25937;DHT22;13733;51.178;4.450;2022-08-01T13:21:57;29.70;69.40
25937;DHT22;13733;51.178;4.450;2022-08-01T13:24:29;29.70;70.90
25937;DHT22;13733;51.178;4.450;2022-08-01T13:27:00;29.80;70.80
25937;DHT22;13733;51.178;4.450;2022-08-01T13:29:35;30.10;66.50
25937;DHT22;13733;51.178;4.450;2022-08-01T13:32:21;30.20;64.70
25937;DHT22;13733;51.178;4.450;2022-08-01T13:34:47;30.10;64.20
25937;DHT22;13733;51.178;4.450;2022-08-01T13:37:13;30.00;65.50
25937;DHT22;13733;51.178;4.450;2022-08-01T13:39:38;30.10;65.10
25937;DHT22;13733;51.178;4.450;2022-08-01T13:42:14;30.30;62.50
25937;DHT22;13733;51.178;4.450;2022-08-01T13:44:41;30.30;61.90
25937;DHT22;13733;51.178;4.450;2022-08-01T13:47:08;30.50;63.40
25937;DHT22;13733;51.178;4.450;2022-08-01T13:49:34;30.70;61.40
25937;DHT22;13733;51.178;4.450;2022-08-01T13:52:01;31.20;61.00
25937;DHT22;13733;51.178;4.450;2022-08-01T13:54:28;31.60;57.70
25937;DHT22;13733;51.178;4.450;2022-08-01T13:56:54;32.50;55.60
25937;DHT22;13733;51.178;4.450;2022-08-01T13:59:21;33.40;54.40
25937;DHT22;13733;51.178;4.450;2022-08-01T14:01:47;33.30;51.40
25937;DHT22;13733;51.178;4.450;2022-08-01T14:04:13;33.30;51.20
25937;DHT22;13733;51.178;4.450;2022-08-01T14:06:39;33.60;49.80
25937;DHT22;13733;51.178;4.450;2022-08-01T14:09:05;33.40;47.80
25937;DHT22;13733;51.178;4.450;2022-08-01T14:11:31;33.90;46.90
25937;DHT22;13733;51.178;4.450;2022-08-01T14:13:57;34.30;47.70
25937;DHT22;13733;51.178;4.450;2022-08-01T14:16:23;34.70;45.90
25937;DHT22;13733;51.178;4.450;2022-08-01T14:18:49;35.60;44.40
25937;DHT22;13733;51.178;4.450;2022-08-01T14:21:14;36.40;41.50
25937;DHT22;13733;51.178;4.450;2022-08-01T14:23:40;36.80;37.40
25937;DHT22;13733;51.178;4.450;2022-08-01T14:26:08;37.20;37.10
25937;DHT22;13733;51.178;4.450;2022-08-01T14:28:35;37.20;36.20
25937;DHT22;13733;51.178;4.450;2022-08-01T14:31:01;37.30;36.90
25937;DHT22;13733;51.178;4.450;2022-08-01T14:33:27;37.10;35.00
25937;DHT22;13733;51.178;4.450;2022-08-01T14:35:53;37.20;36.80
25937;DHT22;13733;51.178;4.450;2022-08-01T14:38:19;37.80;34.90
25937;DHT22;13733;51.178;4.450;2022-08-01T14:40:45;39.00;33.20
25937;DHT22;13733;51.178;4.450;2022-08-01T14:43:18;39.50;32.10
25937;DHT22;13733;51.178;4.450;2022-08-01T14:45:44;39.50;30.90
25937;DHT22;13733;51.178;4.450;2022-08-01T14:48:09;39.70;29.90
25937;DHT22;13733;51.178;4.450;2022-08-01T14:50:35;40.10;29.50
25937;DHT22;13733;51.178;4.450;2022-08-01T14:53:01;40.20;29.30
25937;DHT22;13733;51.178;4.450;2022-08-01T14:55:28;40.10;27.40
25937;DHT22;13733;51.178;4.450;2022-08-01T14:57:54;39.70;28.00
25937;DHT22;13733;51.178;4.450;2022-08-01T15:00:20;39.90;27.70
25937;DHT22;13733;51.178;4.450;2022-08-01T15:02:47;40.50;27.60
25937;DHT22;13733;51.178;4.450;2022-08-01T15:05:13;40.50;27.00
25937;DHT22;13733;51.178;4.450;2022-08-01T15:07:38;40.70;26.50
25937;DHT22;13733;51.178;4.450;2022-08-01T15:10:05;39.50;26.50
25937;DHT22;13733;51.178;4.450;2022-08-01T15:12:31;38.50;27.90
25937;DHT22;13733;51.178;4.450;2022-08-01T15:14:57;39.00;28.60
25937;DHT22;13733;51.178;4.450;2022-08-01T15:17:28;39.70;26.70
25937;DHT22;13733;51.178;4.450;2022-08-01T15:19:59;40.00;26.30
25937;DHT22;13733;51.178;4.450;2022-08-01T15:22:28;39.60;26.40
25937;DHT22;13733;51.178;4.450;2022-08-01T15:24:56;38.30;27.30
25937;DHT22;13733;51.178;4.450;2022-08-01T15:27:22;37.00;27.90
25937;DHT22;13733;51.178;4.450;2022-08-01T15:29:49;36.80;27.80
25937;DHT22;13733;51.178;4.450;2022-08-01T15:32:15;37.70;28.10
25937;DHT22;13733;51.178;4.450;2022-08-01T15:34:44;38.30;28.10
25937;DHT22;13733;51.178;4.450;2022-08-01T15:37:11;38.30;28.20
25937;DHT22;13733;51.178;4.450;2022-08-01T15:39:37;38.80;28.20
25937;DHT22;13733;51.178;4.450;2022-08-01T15:42:11;39.30;27.60
25937;DHT22;13733;51.178;4.450;2022-08-01T15:44:37;39.60;28.10
25937;DHT22;13733;51.178;4.450;2022-08-01T15:47:04;40.30;27.60
25937;DHT22;13733;51.178;4.450;2022-08-01T15:49:30;40.80;27.60
25937;DHT22;13733;51.178;4.450;2022-08-01T15:51:56;41.30;27.30
25937;DHT22;13733;51.178;4.450;2022-08-01T15:54:22;41.90;26.40
25937;DHT22;13733;51.178;4.450;2022-08-01T15:56:48;42.10;25.80
25937;DHT22;13733;51.178;4.450;2022-08-01T15:59:14;42.20;25.50
25937;DHT22;13733;51.178;4.450;2022-08-01T16:01:40;42.50;25.60
25937;DHT22;13733;51.178;4.450;2022-08-01T16:04:06;42.50;24.70
25937;DHT22;13733;51.178;4.450;2022-08-01T16:06:33;42.20;25.40
25937;DHT22;13733;51.178;4.450;2022-08-01T16:08:59;41.50;26.20
25937;DHT22;13733;51.178;4.450;2022-08-01T16:11:25;41.60;25.60
25937;DHT22;13733;51.178;4.450;2022-08-01T16:13:55;41.80;26.00